sensor_id;sensor_type;location;lat;lon;timestamp;P1;durP1;ratioP1;P2;durP2;ratioP2
5555;SDS011;2801;50.972;7.856;2023-02-20T00:00:38;6.00;;;2.53;;
5555;SDS011;2801;50.972;7.856;2023-02-20T00:03:06;7.10;;;2.70;;
5555;SDS011;2801;50.972;7.856;2023-02-20T00:05:33;4.40;;;2.20;;
5555;SDS011;2801;50.972;7.856;2023-02-20T00:08:01;5.33;;;2.77;;
5555;SDS011;2801;50.972;7.856;2023-02-20T00:10:28;6.10;;;2.20;;
5555;SDS011;2801;50.972;7.856;2023-02-20T00:12:55;6.23;;;2.97;;
5555;SDS011;2801;50.972;7.856;2023-02-20T00:15:22;5.67;;;3.10;;
5555;SDS011;2801;50.972;7.856;2023-02-20T00:17:48;5.83;;;3.10;;
5555;SDS011;2801;50.972;7.856;2023-02-20T00:20:22;5.97;;;3.10;;
5555;SDS011;2801;50.972;7.856;2023-02-20T00:22:50;8.07;;;2.80;;
5555;SDS011;2801;50.972;7.856;2023-02-20T00:25:18;6.40;;;2.93;;
5555;SDS011;2801;50.972;7.856;2023-02-20T00:27:47;9.07;;;3.20;;
5555;SDS011;2801;50.972;7.856;2023-02-20T00:30:15;6.23;;;3.07;;
5555;SDS011;2801;50.972;7.856;2023-02-20T00:32:50;5.73;;;3.27;;
5555;SDS011;2801;50.972;7.856;2023-02-20T00:35:18;9.43;;;3.30;;
5555;SDS011;2801;50.972;7.856;2023-02-20T00:37:46;6.93;;;3.30;;
5555;SDS011;2801;50.972;7.856;2023-02-20T00:40:14;8.20;;;3.63;;
5555;SDS011;2801;50.972;7.856;2023-02-20T00:42:43;7.13;;;3.37;;
5555;SDS011;2801;50.972;7.856;2023-02-20T00:45:10;10.23;;;4.10;;
5555;SDS011;2801;50.972;7.856;2023-02-20T00:47:38;10.67;;;4.10;;
5555;SDS011;2801;50.972;7.856;2023-02-20T00:50:06;9.57;;;4.20;;
5555;SDS011;2801;50.972;7.856;2023-02-20T00:52:35;9.27;;;4.43;;
5555;SDS011;2801;50.972;7.856;2023-02-20T00:55:04;12.93;;;4.40;;
5555;SDS011;2801;50.972;7.856;2023-02-20T00:57:32;9.53;;;4.33;;
5555;SDS011;2801;50.972;7.856;2023-02-20T00:59:59;14.97;;;4.90;;
5555;SDS011;2801;50.972;7.856;2023-02-20T01:02:26;15.60;;;5.57;;
5555;SDS011;2801;50.972;7.856;2023-02-20T01:04:53;13.47;;;5.70;;
5555;SDS011;2801;50.972;7.856;2023-02-20T01:07:21;15.07;;;5.70;;
5555;SDS011;2801;50.972;7.856;2023-02-20T01:09:48;17.27;;;5.73;;
5555;SDS011;2801;50.972;7.856;2023-02-20T01:12:15;15.40;;;5.93;;
5555;SDS011;2801;50.972;7.856;2023-02-20T01:14:42;17.50;;;6.23;;
5555;SDS011;2801;50.972;7.856;2023-02-20T01:17:10;19.57;;;6.87;;
5555;SDS011;2801;50.972;7.856;2023-02-20T01:19:38;19.40;;;7.40;;
5555;SDS011;2801;50.972;7.856;2023-02-20T01:22:05;16.83;;;6.83;;
5555;SDS011;2801;50.972;7.856;2023-02-20T01:24:34;19.10;;;6.93;;
5555;SDS011;2801;50.972;7.856;2023-02-20T01:27:00;20.90;;;7.67;;
5555;SDS011;2801;50.972;7.856;2023-02-20T01:29:27;16.30;;;7.13;;
5555;SDS011;2801;50.972;7.856;2023-02-20T01:31:54;23.77;;;8.30;;
5555;SDS011;2801;50.972;7.856;2023-02-20T01:34:21;23.83;;;9.57;;
5555;SDS011;2801;50.972;7.856;2023-02-20T01:36:49;23.47;;;8.73;;
5555;SDS011;2801;50.972;7.856;2023-02-20T01:39:20;25.67;;;9.90;;
5555;SDS011;2801;50.972;7.856;2023-02-20T01:41:54;27.20;;;9.57;;
5555;SDS011;2801;50.972;7.856;2023-02-20T01:44:28;29.83;;;10.93;;
5555;SDS011;2801;50.972;7.856;2023-02-20T01:47:04;30.57;;;10.60;;
5555;SDS011;2801;50.972;7.856;2023-02-20T01:49:54;28.97;;;10.60;;
5555;SDS011;2801;50.972;7.856;2023-02-20T01:52:29;27.27;;;9.57;;
5555;SDS011;2801;50.972;7.856;2023-02-20T01:55:02;27.63;;;10.70;;
5555;SDS011;2801;50.972;7.856;2023-02-20T01:57:37;39.43;;;11.47;;
5555;SDS011;2801;50.972;7.856;2023-02-20T02:00:10;33.97;;;11.13;;
5555;SDS011;2801;50.972;7.856;2023-02-20T02:02:43;29.87;;;10.70;;
5555;SDS011;2801;50.972;7.856;2023-02-20T02:05:16;30.23;;;11.37;;
5555;SDS011;2801;50.972;7.856;2023-02-20T02:07:44;26.53;;;10.53;;
5555;SDS011;2801;50.972;7.856;2023-02-20T02:10:18;30.10;;;10.77;;
5555;SDS011;2801;50.972;7.856;2023-02-20T02:12:52;28.33;;;11.17;;
5555;SDS011;2801;50.972;7.856;2023-02-20T02:15:20;27.57;;;10.63;;
5555;SDS011;2801;50.972;7.856;2023-02-20T02:20:43;30.47;;;10.60;;
5555;SDS011;2801;50.972;7.856;2023-02-20T02:41:59;22.37;;;8.93;;
5555;SDS011;2801;50.972;7.856;2023-02-20T02:44:56;24.20;;;9.57;;
5555;SDS011;2801;50.972;7.856;2023-02-20T02:50:35;23.83;;;9.67;;
5555;SDS011;2801;50.972;7.856;2023-02-20T02:53:09;23.07;;;9.03;;
5555;SDS011;2801;50.972;7.856;2023-02-20T02:55:38;20.33;;;8.60;;
5555;SDS011;2801;50.972;7.856;2023-02-20T02:58:06;21.53;;;9.13;;
5555;SDS011;2801;50.972;7.856;2023-02-20T03:00:54;25.23;;;9.53;;
5555;SDS011;2801;50.972;7.856;2023-02-20T03:03:27;18.67;;;7.97;;
5555;SDS011;2801;50.972;7.856;2023-02-20T03:06:05;21.40;;;8.33;;
5555;SDS011;2801;50.972;7.856;2023-02-20T03:08:58;18.07;;;7.37;;
5555;SDS011;2801;50.972;7.856;2023-02-20T03:11:34;18.37;;;7.47;;
5555;SDS011;2801;50.972;7.856;2023-02-20T03:14:18;19.47;;;7.87;;
5555;SDS011;2801;50.972;7.856;2023-02-20T03:17:14;22.93;;;7.90;;
5555;SDS011;2801;50.972;7.856;2023-02-20T03:19:55;20.40;;;8.37;;
5555;SDS011;2801;50.972;7.856;2023-02-20T03:22:30;19.47;;;8.17;;
5555;SDS011;2801;50.972;7.856;2023-02-20T03:25:09;19.73;;;8.53;;
5555;SDS011;2801;50.972;7.856;2023-02-20T03:27:46;19.63;;;7.90;;
5555;SDS011;2801;50.972;7.856;2023-02-20T03:33:33;22.20;;;8.80;;
5555;SDS011;2801;50.972;7.856;2023-02-20T03:36:34;18.40;;;8.07;;
5555;SDS011;2801;50.972;7.856;2023-02-20T03:39:35;23.43;;;8.43;;
5555;SDS011;2801;50.972;7.856;2023-02-20T03:42:27;20.57;;;7.83;;
5555;SDS011;2801;50.972;7.856;2023-02-20T03:45:17;21.90;;;8.43;;
5555;SDS011;2801;50.972;7.856;2023-02-20T03:47:49;25.97;;;9.00;;
5555;SDS011;2801;50.972;7.856;2023-02-20T03:50:22;23.83;;;9.33;;
5555;SDS011;2801;50.972;7.856;2023-02-20T03:52:49;21.73;;;9.10;;
5555;SDS011;2801;50.972;7.856;2023-02-20T03:55:16;20.87;;;8.17;;
5555;SDS011;2801;50.972;7.856;2023-02-20T03:57:48;20.77;;;8.87;;
5555;SDS011;2801;50.972;7.856;2023-02-20T04:00:19;21.37;;;8.97;;
5555;SDS011;2801;50.972;7.856;2023-02-20T04:02:53;25.30;;;8.57;;
5555;SDS011;2801;50.972;7.856;2023-02-20T04:05:29;24.23;;;9.13;;
5555;SDS011;2801;50.972;7.856;2023-02-20T04:08:10;30.73;;;8.80;;
5555;SDS011;2801;50.972;7.856;2023-02-20T04:10:51;26.20;;;8.60;;
5555;SDS011;2801;50.972;7.856;2023-02-20T04:13:25;26.20;;;8.10;;
5555;SDS011;2801;50.972;7.856;2023-02-20T04:15:52;26.27;;;8.63;;
5555;SDS011;2801;50.972;7.856;2023-02-20T04:18:23;26.33;;;7.67;;
5555;SDS011;2801;50.972;7.856;2023-02-20T04:20:51;26.13;;;8.67;;
5555;SDS011;2801;50.972;7.856;2023-02-20T04:23:22;27.50;;;7.73;;
5555;SDS011;2801;50.972;7.856;2023-02-20T04:25:52;24.70;;;9.10;;
5555;SDS011;2801;50.972;7.856;2023-02-20T04:28:26;21.83;;;8.40;;
5555;SDS011;2801;50.972;7.856;2023-02-20T04:30:53;25.10;;;8.93;;
5555;SDS011;2801;50.972;7.856;2023-02-20T04:33:20;29.57;;;10.87;;
5555;SDS011;2801;50.972;7.856;2023-02-20T04:35:48;30.87;;;10.63;;
5555;SDS011;2801;50.972;7.856;2023-02-20T04:38:15;26.93;;;9.03;;
5555;SDS011;2801;50.972;7.856;2023-02-20T04:40:42;24.27;;;8.63;;
5555;SDS011;2801;50.972;7.856;2023-02-20T04:43:09;27.47;;;9.27;;
5555;SDS011;2801;50.972;7.856;2023-02-20T04:45:36;31.77;;;9.77;;
5555;SDS011;2801;50.972;7.856;2023-02-20T04:48:03;33.83;;;9.00;;
5555;SDS011;2801;50.972;7.856;2023-02-20T04:50:31;26.10;;;8.87;;
5555;SDS011;2801;50.972;7.856;2023-02-20T04:53:00;27.60;;;9.43;;
5555;SDS011;2801;50.972;7.856;2023-02-20T04:55:27;23.13;;;8.57;;
5555;SDS011;2801;50.972;7.856;2023-02-20T04:57:54;25.97;;;9.20;;
5555;SDS011;2801;50.972;7.856;2023-02-20T05:00:24;27.33;;;8.10;;
5555;SDS011;2801;50.972;7.856;2023-02-20T05:02:52;27.47;;;8.43;;
5555;SDS011;2801;50.972;7.856;2023-02-20T05:05:21;26.73;;;7.63;;
5555;SDS011;2801;50.972;7.856;2023-02-20T05:07:58;19.97;;;8.23;;
5555;SDS011;2801;50.972;7.856;2023-02-20T05:10:29;20.43;;;6.87;;
5555;SDS011;2801;50.972;7.856;2023-02-20T05:12:58;19.63;;;8.07;;
5555;SDS011;2801;50.972;7.856;2023-02-20T05:15:26;16.63;;;6.93;;
5555;SDS011;2801;50.972;7.856;2023-02-20T05:17:54;20.33;;;7.23;;
5555;SDS011;2801;50.972;7.856;2023-02-20T05:20:21;18.07;;;6.57;;
5555;SDS011;2801;50.972;7.856;2023-02-20T05:23:08;21.17;;;6.63;;
5555;SDS011;2801;50.972;7.856;2023-02-20T05:25:35;23.00;;;6.97;;
5555;SDS011;2801;50.972;7.856;2023-02-20T05:28:02;18.27;;;7.40;;
5555;SDS011;2801;50.972;7.856;2023-02-20T05:30:29;21.43;;;7.40;;
5555;SDS011;2801;50.972;7.856;2023-02-20T05:32:56;22.40;;;7.27;;
5555;SDS011;2801;50.972;7.856;2023-02-20T05:35:22;27.33;;;7.37;;
5555;SDS011;2801;50.972;7.856;2023-02-20T05:37:49;26.10;;;7.93;;
5555;SDS011;2801;50.972;7.856;2023-02-20T05:40:16;25.93;;;7.90;;
5555;SDS011;2801;50.972;7.856;2023-02-20T05:42:43;22.13;;;7.97;;
5555;SDS011;2801;50.972;7.856;2023-02-20T05:45:10;26.00;;;8.40;;
5555;SDS011;2801;50.972;7.856;2023-02-20T05:47:37;27.73;;;8.60;;
5555;SDS011;2801;50.972;7.856;2023-02-20T05:50:04;22.53;;;7.90;;
5555;SDS011;2801;50.972;7.856;2023-02-20T05:52:31;25.53;;;9.37;;
5555;SDS011;2801;50.972;7.856;2023-02-20T05:54:58;23.67;;;8.40;;
5555;SDS011;2801;50.972;7.856;2023-02-20T05:57:25;27.73;;;9.03;;
5555;SDS011;2801;50.972;7.856;2023-02-20T05:59:52;25.50;;;9.00;;
5555;SDS011;2801;50.972;7.856;2023-02-20T06:02:19;22.37;;;8.20;;
5555;SDS011;2801;50.972;7.856;2023-02-20T06:04:46;18.27;;;7.17;;
5555;SDS011;2801;50.972;7.856;2023-02-20T06:07:13;23.83;;;7.77;;
5555;SDS011;2801;50.972;7.856;2023-02-20T06:09:40;26.40;;;7.30;;
5555;SDS011;2801;50.972;7.856;2023-02-20T06:12:09;22.43;;;7.43;;
5555;SDS011;2801;50.972;7.856;2023-02-20T06:14:37;19.50;;;7.53;;
5555;SDS011;2801;50.972;7.856;2023-02-20T06:17:08;17.93;;;7.10;;
5555;SDS011;2801;50.972;7.856;2023-02-20T06:19:34;19.83;;;6.80;;
5555;SDS011;2801;50.972;7.856;2023-02-20T06:22:01;22.37;;;7.17;;
5555;SDS011;2801;50.972;7.856;2023-02-20T06:24:28;25.23;;;8.33;;
5555;SDS011;2801;50.972;7.856;2023-02-20T06:26:55;21.87;;;7.10;;
5555;SDS011;2801;50.972;7.856;2023-02-20T06:29:23;26.97;;;8.03;;
5555;SDS011;2801;50.972;7.856;2023-02-20T06:31:50;29.03;;;8.10;;
5555;SDS011;2801;50.972;7.856;2023-02-20T06:34:17;31.13;;;8.00;;
5555;SDS011;2801;50.972;7.856;2023-02-20T06:36:44;29.80;;;7.53;;
5555;SDS011;2801;50.972;7.856;2023-02-20T06:39:12;21.93;;;8.40;;
5555;SDS011;2801;50.972;7.856;2023-02-20T06:41:39;21.33;;;8.33;;
5555;SDS011;2801;50.972;7.856;2023-02-20T06:44:06;26.27;;;8.13;;
5555;SDS011;2801;50.972;7.856;2023-02-20T06:46:33;29.57;;;8.80;;
5555;SDS011;2801;50.972;7.856;2023-02-20T06:49:00;28.20;;;9.33;;
5555;SDS011;2801;50.972;7.856;2023-02-20T06:51:30;28.70;;;8.83;;
5555;SDS011;2801;50.972;7.856;2023-02-20T06:53:59;33.97;;;9.87;;
5555;SDS011;2801;50.972;7.856;2023-02-20T06:56:29;22.10;;;7.97;;
5555;SDS011;2801;50.972;7.856;2023-02-20T06:58:59;27.57;;;8.27;;
5555;SDS011;2801;50.972;7.856;2023-02-20T07:01:28;31.37;;;9.43;;
5555;SDS011;2801;50.972;7.856;2023-02-20T07:04:04;26.40;;;9.10;;
5555;SDS011;2801;50.972;7.856;2023-02-20T07:06:32;29.20;;;9.97;;
5555;SDS011;2801;50.972;7.856;2023-02-20T07:08:59;37.77;;;9.37;;
5555;SDS011;2801;50.972;7.856;2023-02-20T07:11:26;34.17;;;9.60;;
5555;SDS011;2801;50.972;7.856;2023-02-20T07:13:52;28.97;;;9.10;;
5555;SDS011;2801;50.972;7.856;2023-02-20T07:16:19;30.43;;;9.43;;
5555;SDS011;2801;50.972;7.856;2023-02-20T07:18:46;32.33;;;8.80;;
5555;SDS011;2801;50.972;7.856;2023-02-20T07:21:13;30.00;;;9.03;;
5555;SDS011;2801;50.972;7.856;2023-02-20T07:23:44;34.87;;;9.27;;
5555;SDS011;2801;50.972;7.856;2023-02-20T07:26:30;32.00;;;9.20;;
5555;SDS011;2801;50.972;7.856;2023-02-20T07:28:57;28.37;;;9.33;;
5555;SDS011;2801;50.972;7.856;2023-02-20T07:31:26;35.73;;;9.70;;
5555;SDS011;2801;50.972;7.856;2023-02-20T07:33:54;27.27;;;9.50;;
5555;SDS011;2801;50.972;7.856;2023-02-20T07:36:21;36.43;;;9.77;;
5555;SDS011;2801;50.972;7.856;2023-02-20T07:39:06;30.10;;;9.17;;
5555;SDS011;2801;50.972;7.856;2023-02-20T07:41:33;28.57;;;9.03;;
5555;SDS011;2801;50.972;7.856;2023-02-20T07:44:01;32.37;;;10.13;;
5555;SDS011;2801;50.972;7.856;2023-02-20T07:46:28;28.20;;;9.70;;
5555;SDS011;2801;50.972;7.856;2023-02-20T07:49:00;29.70;;;9.03;;
5555;SDS011;2801;50.972;7.856;2023-02-20T07:51:31;28.70;;;9.77;;
5555;SDS011;2801;50.972;7.856;2023-02-20T07:53:58;33.13;;;11.40;;
5555;SDS011;2801;50.972;7.856;2023-02-20T07:56:25;29.13;;;9.73;;
5555;SDS011;2801;50.972;7.856;2023-02-20T07:58:52;34.83;;;11.00;;
5555;SDS011;2801;50.972;7.856;2023-02-20T08:01:19;34.13;;;9.23;;
5555;SDS011;2801;50.972;7.856;2023-02-20T08:03:47;31.73;;;10.03;;
5555;SDS011;2801;50.972;7.856;2023-02-20T08:06:18;30.10;;;10.33;;
5555;SDS011;2801;50.972;7.856;2023-02-20T08:08:46;36.70;;;10.10;;
5555;SDS011;2801;50.972;7.856;2023-02-20T08:11:17;34.03;;;9.20;;
5555;SDS011;2801;50.972;7.856;2023-02-20T08:13:46;31.63;;;9.73;;
5555;SDS011;2801;50.972;7.856;2023-02-20T08:16:14;28.73;;;9.33;;
5555;SDS011;2801;50.972;7.856;2023-02-20T08:18:41;26.57;;;8.43;;
5555;SDS011;2801;50.972;7.856;2023-02-20T08:21:08;27.13;;;8.50;;
5555;SDS011;2801;50.972;7.856;2023-02-20T08:23:37;28.90;;;9.20;;
5555;SDS011;2801;50.972;7.856;2023-02-20T08:26:04;30.93;;;10.07;;
5555;SDS011;2801;50.972;7.856;2023-02-20T08:28:32;26.13;;;8.87;;
5555;SDS011;2801;50.972;7.856;2023-02-20T08:30:59;26.33;;;8.77;;
5555;SDS011;2801;50.972;7.856;2023-02-20T08:33:29;23.23;;;8.73;;
5555;SDS011;2801;50.972;7.856;2023-02-20T08:35:56;33.33;;;9.67;;
5555;SDS011;2801;50.972;7.856;2023-02-20T08:38:25;26.77;;;9.00;;
5555;SDS011;2801;50.972;7.856;2023-02-20T08:41:01;23.13;;;8.00;;
5555;SDS011;2801;50.972;7.856;2023-02-20T08:43:32;19.63;;;8.03;;
5555;SDS011;2801;50.972;7.856;2023-02-20T08:46:03;23.20;;;8.10;;
5555;SDS011;2801;50.972;7.856;2023-02-20T08:48:32;27.60;;;8.53;;
5555;SDS011;2801;50.972;7.856;2023-02-20T08:51:00;23.63;;;8.17;;
5555;SDS011;2801;50.972;7.856;2023-02-20T08:53:27;22.30;;;7.93;;
5555;SDS011;2801;50.972;7.856;2023-02-20T08:55:54;21.77;;;8.20;;
5555;SDS011;2801;50.972;7.856;2023-02-20T08:58:22;22.07;;;8.60;;
5555;SDS011;2801;50.972;7.856;2023-02-20T09:00:50;19.43;;;7.67;;
5555;SDS011;2801;50.972;7.856;2023-02-20T09:03:18;19.80;;;7.73;;
5555;SDS011;2801;50.972;7.856;2023-02-20T09:05:45;22.30;;;8.30;;
5555;SDS011;2801;50.972;7.856;2023-02-20T09:08:12;20.30;;;7.87;;
5555;SDS011;2801;50.972;7.856;2023-02-20T09:10:40;20.83;;;7.77;;
5555;SDS011;2801;50.972;7.856;2023-02-20T09:13:07;15.47;;;7.10;;
5555;SDS011;2801;50.972;7.856;2023-02-20T09:15:34;20.83;;;7.77;;
5555;SDS011;2801;50.972;7.856;2023-02-20T09:18:07;16.13;;;7.13;;
5555;SDS011;2801;50.972;7.856;2023-02-20T09:20:39;16.58;;;6.90;;
5555;SDS011;2801;50.972;7.856;2023-02-20T09:23:07;15.18;;;6.55;;
5555;SDS011;2801;50.972;7.856;2023-02-20T09:25:35;14.17;;;5.70;;
5555;SDS011;2801;50.972;7.856;2023-02-20T09:28:02;13.60;;;5.47;;
5555;SDS011;2801;50.972;7.856;2023-02-20T09:30:29;9.70;;;5.10;;
5555;SDS011;2801;50.972;7.856;2023-02-20T09:32:56;9.18;;;5.03;;
5555;SDS011;2801;50.972;7.856;2023-02-20T09:35:27;9.07;;;4.40;;
5555;SDS011;2801;50.972;7.856;2023-02-20T09:37:56;7.60;;;3.57;;
5555;SDS011;2801;50.972;7.856;2023-02-20T09:40:24;8.10;;;4.17;;
5555;SDS011;2801;50.972;7.856;2023-02-20T09:45:30;8.20;;;3.50;;
5555;SDS011;2801;50.972;7.856;2023-02-20T09:51:01;7.53;;;3.80;;
5555;SDS011;2801;50.972;7.856;2023-02-20T09:53:37;10.47;;;3.90;;
5555;SDS011;2801;50.972;7.856;2023-02-20T09:56:32;9.53;;;4.20;;
5555;SDS011;2801;50.972;7.856;2023-02-20T09:59:12;8.85;;;3.97;;
5555;SDS011;2801;50.972;7.856;2023-02-20T10:04:23;7.87;;;4.57;;
5555;SDS011;2801;50.972;7.856;2023-02-20T10:07:36;9.77;;;4.40;;
5555;SDS011;2801;50.972;7.856;2023-02-20T10:10:27;7.83;;;5.03;;
5555;SDS011;2801;50.972;7.856;2023-02-20T10:25:03;10.53;;;5.93;;
5555;SDS011;2801;50.972;7.856;2023-02-20T10:27:53;9.67;;;6.37;;
5555;SDS011;2801;50.972;7.856;2023-02-20T10:30:43;10.38;;;7.20;;
5555;SDS011;2801;50.972;7.856;2023-02-20T10:33:25;11.27;;;6.83;;
5555;SDS011;2801;50.972;7.856;2023-02-20T10:39:06;14.30;;;6.90;;
5555;SDS011;2801;50.972;7.856;2023-02-20T10:41:46;12.13;;;6.97;;
5555;SDS011;2801;50.972;7.856;2023-02-20T10:44:30;11.77;;;7.43;;
5555;SDS011;2801;50.972;7.856;2023-02-20T10:47:39;9.70;;;6.97;;
5555;SDS011;2801;50.972;7.856;2023-02-20T10:53:16;14.40;;;7.75;;
5555;SDS011;2801;50.972;7.856;2023-02-20T10:56:13;15.13;;;7.83;;
5555;SDS011;2801;50.972;7.856;2023-02-20T10:58:54;10.83;;;6.90;;
5555;SDS011;2801;50.972;7.856;2023-02-20T11:01:38;11.27;;;7.10;;
5555;SDS011;2801;50.972;7.856;2023-02-20T11:06:55;15.03;;;7.37;;
5555;SDS011;2801;50.972;7.856;2023-02-20T11:09:49;13.17;;;7.07;;
5555;SDS011;2801;50.972;7.856;2023-02-20T11:12:21;12.02;;;6.78;;
5555;SDS011;2801;50.972;7.856;2023-02-20T11:14:54;11.97;;;7.03;;
5555;SDS011;2801;50.972;7.856;2023-02-20T11:17:24;12.67;;;7.20;;
5555;SDS011;2801;50.972;7.856;2023-02-20T11:19:56;14.27;;;6.70;;
5555;SDS011;2801;50.972;7.856;2023-02-20T11:22:43;11.53;;;7.30;;
5555;SDS011;2801;50.972;7.856;2023-02-20T11:25:18;14.47;;;7.50;;
5555;SDS011;2801;50.972;7.856;2023-02-20T11:27:53;10.80;;;7.03;;
5555;SDS011;2801;50.972;7.856;2023-02-20T11:33:14;13.23;;;7.47;;
5555;SDS011;2801;50.972;7.856;2023-02-20T11:35:51;11.40;;;7.13;;
5555;SDS011;2801;50.972;7.856;2023-02-20T11:43:22;13.63;;;8.03;;
5555;SDS011;2801;50.972;7.856;2023-02-20T11:46:06;11.70;;;7.43;;
5555;SDS011;2801;50.972;7.856;2023-02-20T11:48:41;12.80;;;8.03;;
5555;SDS011;2801;50.972;7.856;2023-02-20T11:57:05;12.70;;;7.93;;
5555;SDS011;2801;50.972;7.856;2023-02-20T11:59:51;12.80;;;7.80;;
5555;SDS011;2801;50.972;7.856;2023-02-20T12:02:52;13.17;;;7.67;;
5555;SDS011;2801;50.972;7.856;2023-02-20T12:05:35;14.77;;;8.10;;
5555;SDS011;2801;50.972;7.856;2023-02-20T12:08:19;13.80;;;7.93;;
5555;SDS011;2801;50.972;7.856;2023-02-20T12:10:59;15.60;;;8.53;;
5555;SDS011;2801;50.972;7.856;2023-02-20T12:13:37;15.48;;;7.80;;
5555;SDS011;2801;50.972;7.856;2023-02-20T12:36:30;12.88;;;6.88;;
5555;SDS011;2801;50.972;7.856;2023-02-20T12:39:13;13.30;;;6.93;;
5555;SDS011;2801;50.972;7.856;2023-02-20T12:55:07;11.02;;;6.03;;
5555;SDS011;2801;50.972;7.856;2023-02-20T13:01:22;9.98;;;6.55;;
5555;SDS011;2801;50.972;7.856;2023-02-20T13:04:05;13.63;;;7.18;;
5555;SDS011;2801;50.972;7.856;2023-02-20T13:07:07;12.75;;;7.40;;
5555;SDS011;2801;50.972;7.856;2023-02-20T13:09:46;14.65;;;7.60;;
5555;SDS011;2801;50.972;7.856;2023-02-20T13:12:37;14.35;;;7.50;;
5555;SDS011;2801;50.972;7.856;2023-02-20T13:15:18;14.45;;;7.85;;
5555;SDS011;2801;50.972;7.856;2023-02-20T13:20:46;13.55;;;8.00;;
5555;SDS011;2801;50.972;7.856;2023-02-20T13:25:49;14.68;;;8.45;;
5555;SDS011;2801;50.972;7.856;2023-02-20T13:31:11;16.83;;;9.35;;
5555;SDS011;2801;50.972;7.856;2023-02-20T13:33:44;16.88;;;9.40;;
5555;SDS011;2801;50.972;7.856;2023-02-20T13:36:59;20.13;;;10.07;;
5555;SDS011;2801;50.972;7.856;2023-02-20T13:47:03;20.17;;;9.93;;
5555;SDS011;2801;50.972;7.856;2023-02-20T13:49:52;19.95;;;11.00;;
5555;SDS011;2801;50.972;7.856;2023-02-20T13:57:46;22.20;;;10.93;;
5555;SDS011;2801;50.972;7.856;2023-02-20T14:00:40;21.90;;;11.43;;
5555;SDS011;2801;50.972;7.856;2023-02-20T14:03:09;22.67;;;12.30;;
5555;SDS011;2801;50.972;7.856;2023-02-20T14:08:42;21.00;;;11.77;;
5555;SDS011;2801;50.972;7.856;2023-02-20T14:13:55;27.30;;;13.43;;
5555;SDS011;2801;50.972;7.856;2023-02-20T14:19:14;22.90;;;12.17;;
5555;SDS011;2801;50.972;7.856;2023-02-20T14:21:51;20.48;;;10.88;;
5555;SDS011;2801;50.972;7.856;2023-02-20T14:24:27;29.95;;;12.68;;
5555;SDS011;2801;50.972;7.856;2023-02-20T14:26:54;22.83;;;10.83;;
5555;SDS011;2801;50.972;7.856;2023-02-20T14:29:27;21.40;;;11.33;;
5555;SDS011;2801;50.972;7.856;2023-02-20T14:31:57;19.80;;;11.23;;
5555;SDS011;2801;50.972;7.856;2023-02-20T14:34:34;22.63;;;11.80;;
5555;SDS011;2801;50.972;7.856;2023-02-20T14:37:43;22.13;;;11.67;;
5555;SDS011;2801;50.972;7.856;2023-02-20T14:40:26;22.03;;;12.17;;
5555;SDS011;2801;50.972;7.856;2023-02-20T14:43:11;22.33;;;11.77;;
5555;SDS011;2801;50.972;7.856;2023-02-20T14:45:46;23.37;;;12.83;;
5555;SDS011;2801;50.972;7.856;2023-02-20T14:48:30;24.67;;;12.47;;
5555;SDS011;2801;50.972;7.856;2023-02-20T14:51:04;27.40;;;14.00;;
5555;SDS011;2801;50.972;7.856;2023-02-20T14:53:40;19.70;;;11.43;;
5555;SDS011;2801;50.972;7.856;2023-02-20T14:56:16;26.30;;;12.03;;
5555;SDS011;2801;50.972;7.856;2023-02-20T14:58:44;24.17;;;13.53;;
5555;SDS011;2801;50.972;7.856;2023-02-20T15:04:09;30.70;;;15.93;;
5555;SDS011;2801;50.972;7.856;2023-02-20T15:06:43;27.05;;;13.52;;
5555;SDS011;2801;50.972;7.856;2023-02-20T15:09:13;28.53;;;13.43;;
5555;SDS011;2801;50.972;7.856;2023-02-20T15:11:55;21.00;;;12.25;;
5555;SDS011;2801;50.972;7.856;2023-02-20T15:14:25;29.17;;;14.43;;
5555;SDS011;2801;50.972;7.856;2023-02-20T15:17:41;29.53;;;14.47;;
5555;SDS011;2801;50.972;7.856;2023-02-20T15:19:49;26.07;;;14.27;;
5555;SDS011;2801;50.972;7.856;2023-02-20T15:22:33;23.23;;;11.93;;
5555;SDS011;2801;50.972;7.856;2023-02-20T15:28:03;23.83;;;13.63;;
5555;SDS011;2801;50.972;7.856;2023-02-20T15:33:37;25.87;;;12.87;;
5555;SDS011;2801;50.972;7.856;2023-02-20T15:36:11;21.60;;;11.40;;
5555;SDS011;2801;50.972;7.856;2023-02-20T15:38:42;27.37;;;12.63;;
5555;SDS011;2801;50.972;7.856;2023-02-20T15:41:09;24.03;;;12.00;;
5555;SDS011;2801;50.972;7.856;2023-02-20T15:43:37;24.43;;;11.57;;
5555;SDS011;2801;50.972;7.856;2023-02-20T15:46:16;24.53;;;12.07;;
5555;SDS011;2801;50.972;7.856;2023-02-20T15:48:44;21.87;;;11.70;;
5555;SDS011;2801;50.972;7.856;2023-02-20T15:51:12;24.13;;;11.43;;
5555;SDS011;2801;50.972;7.856;2023-02-20T15:53:44;22.43;;;12.10;;
5555;SDS011;2801;50.972;7.856;2023-02-20T15:56:12;23.20;;;12.13;;
5555;SDS011;2801;50.972;7.856;2023-02-20T15:58:41;20.38;;;11.18;;
5555;SDS011;2801;50.972;7.856;2023-02-20T16:01:09;25.17;;;12.13;;
5555;SDS011;2801;50.972;7.856;2023-02-20T16:03:37;21.50;;;11.53;;
5555;SDS011;2801;50.972;7.856;2023-02-20T16:06:17;21.37;;;12.30;;
5555;SDS011;2801;50.972;7.856;2023-02-20T16:08:46;26.47;;;12.00;;
5555;SDS011;2801;50.972;7.856;2023-02-20T16:11:16;24.40;;;11.43;;
5555;SDS011;2801;50.972;7.856;2023-02-20T16:13:53;22.87;;;12.70;;
5555;SDS011;2801;50.972;7.856;2023-02-20T16:16:29;22.17;;;11.93;;
5555;SDS011;2801;50.972;7.856;2023-02-20T16:19:01;23.17;;;12.00;;
5555;SDS011;2801;50.972;7.856;2023-02-20T16:21:35;24.97;;;12.87;;
5555;SDS011;2801;50.972;7.856;2023-02-20T16:24:04;20.83;;;11.73;;
5555;SDS011;2801;50.972;7.856;2023-02-20T16:26:31;21.67;;;12.13;;
5555;SDS011;2801;50.972;7.856;2023-02-20T16:29:02;23.83;;;12.67;;
5555;SDS011;2801;50.972;7.856;2023-02-20T16:34:29;26.03;;;14.67;;
5555;SDS011;2801;50.972;7.856;2023-02-20T16:36:58;27.73;;;14.40;;
5555;SDS011;2801;50.972;7.856;2023-02-20T16:39:26;26.57;;;14.33;;
5555;SDS011;2801;50.972;7.856;2023-02-20T16:41:56;29.87;;;15.13;;
5555;SDS011;2801;50.972;7.856;2023-02-20T16:47:01;33.07;;;14.73;;
5555;SDS011;2801;50.972;7.856;2023-02-20T16:49:28;28.07;;;14.23;;
5555;SDS011;2801;50.972;7.856;2023-02-20T16:51:54;33.83;;;15.30;;
5555;SDS011;2801;50.972;7.856;2023-02-20T16:54:27;34.07;;;15.80;;
5555;SDS011;2801;50.972;7.856;2023-02-20T16:56:54;30.93;;;15.83;;
5555;SDS011;2801;50.972;7.856;2023-02-20T16:59:21;28.93;;;13.60;;
5555;SDS011;2801;50.972;7.856;2023-02-20T17:01:48;32.27;;;15.43;;
5555;SDS011;2801;50.972;7.856;2023-02-20T17:04:17;32.17;;;15.50;;
5555;SDS011;2801;50.972;7.856;2023-02-20T17:06:45;30.53;;;15.47;;
5555;SDS011;2801;50.972;7.856;2023-02-20T17:09:12;32.77;;;16.83;;
5555;SDS011;2801;50.972;7.856;2023-02-20T17:11:39;27.27;;;14.47;;
5555;SDS011;2801;50.972;7.856;2023-02-20T17:14:06;30.07;;;15.10;;
5555;SDS011;2801;50.972;7.856;2023-02-20T17:16:33;27.37;;;13.40;;
5555;SDS011;2801;50.972;7.856;2023-02-20T17:19:00;34.53;;;14.73;;
5555;SDS011;2801;50.972;7.856;2023-02-20T17:21:27;30.57;;;14.17;;
5555;SDS011;2801;50.972;7.856;2023-02-20T17:23:54;32.67;;;14.20;;
5555;SDS011;2801;50.972;7.856;2023-02-20T17:26:21;35.33;;;15.43;;
5555;SDS011;2801;50.972;7.856;2023-02-20T17:28:51;31.67;;;14.97;;
5555;SDS011;2801;50.972;7.856;2023-02-20T17:31:18;32.43;;;15.00;;
5555;SDS011;2801;50.972;7.856;2023-02-20T17:33:47;32.67;;;15.97;;
5555;SDS011;2801;50.972;7.856;2023-02-20T17:36:14;30.00;;;15.83;;
5555;SDS011;2801;50.972;7.856;2023-02-20T17:38:41;27.93;;;14.47;;
5555;SDS011;2801;50.972;7.856;2023-02-20T17:41:08;33.33;;;15.13;;
5555;SDS011;2801;50.972;7.856;2023-02-20T17:43:35;32.87;;;14.17;;
5555;SDS011;2801;50.972;7.856;2023-02-20T17:46:04;32.27;;;15.53;;
5555;SDS011;2801;50.972;7.856;2023-02-20T17:48:32;28.83;;;15.07;;
5555;SDS011;2801;50.972;7.856;2023-02-20T17:50:58;34.40;;;16.20;;
5555;SDS011;2801;50.972;7.856;2023-02-20T17:53:25;30.67;;;14.97;;
5555;SDS011;2801;50.972;7.856;2023-02-20T17:55:52;39.10;;;15.63;;
5555;SDS011;2801;50.972;7.856;2023-02-20T17:58:19;32.63;;;15.67;;
5555;SDS011;2801;50.972;7.856;2023-02-20T18:00:46;37.87;;;16.80;;